Terminal Aerodrome Forecast
Issued by NWS

Home | Current Version | Previous Version | Text Only | Print | Product List | Glossary On
Versions: 1 2 3 4 5 6 7 8 9 10 11 12 13 14
000
FTUS45 KRIW 061608 AAA
TAFWRL
TAF AMD
KWRL 061608Z 0616/0712 VRB04KT 5SM BR BKN018
     FM061800 VRB05KT P6SM OVC025
     FM061900 VRB05KT P6SM VCSH SCT025 BKN040
     FM070200 14005KT P6SM SCT060
     FM070800 15005KT P6SM FEW080=

USA.gov is the U.S. government's official web portal to all federal, state and local government web resources and services.